createdAt,value
2023-04-16T00:00:48.298Z,2.72
2023-04-16T00:03:16.270Z,10.23
2023-04-16T00:05:43.150Z,3.30
2023-04-16T00:08:10.920Z,6.88
2023-04-16T00:10:37.658Z,3.33
2023-04-16T00:13:04.317Z,6.82
2023-04-16T00:15:31.120Z,7.88
2023-04-16T00:17:57.826Z,3.90
2023-04-16T00:20:24.613Z,3.70
2023-04-16T00:22:51.563Z,3.20
2023-04-16T00:25:18.175Z,2.75
2023-04-16T00:27:44.913Z,3.58
2023-04-16T00:30:12.080Z,2.93
2023-04-16T00:32:38.797Z,6.03
2023-04-16T00:35:06.061Z,5.20
2023-04-16T00:37:33.082Z,5.30
2023-04-16T00:39:59.735Z,5.15
2023-04-16T00:42:26.446Z,2.00
2023-04-16T00:44:53.174Z,6.85
2023-04-16T00:47:21.745Z,4.97
2023-04-16T00:49:49.117Z,3.55
2023-04-16T00:52:15.779Z,6.90
2023-04-16T00:54:42.428Z,3.87
2023-04-16T00:57:10.188Z,3.63
2023-04-16T00:59:36.984Z,4.13
2023-04-16T01:02:03.627Z,2.95
2023-04-16T01:04:30.958Z,7.85
2023-04-16T01:06:57.698Z,3.17
2023-04-16T01:09:24.499Z,4.03
2023-04-16T01:11:51.080Z,3.55
2023-04-16T01:14:17.644Z,5.00
2023-04-16T01:16:44.329Z,2.65
2023-04-16T01:19:11.164Z,6.10
2023-04-16T01:21:37.879Z,5.45
2023-04-16T01:24:05.214Z,5.90
2023-04-16T01:26:31.973Z,5.47
2023-04-16T01:28:59.624Z,6.47
2023-04-16T01:31:26.405Z,4.87
2023-04-16T01:33:53.043Z,5.78
2023-04-16T01:36:19.810Z,4.63
2023-04-16T01:38:46.678Z,3.75
2023-04-16T01:41:13.340Z,3.35
2023-04-16T01:43:40.421Z,5.93
2023-04-16T01:46:20.786Z,5.90
2023-04-16T01:48:47.965Z,2.40
2023-04-16T01:51:14.705Z,3.60
2023-04-16T01:53:41.278Z,6.90
2023-04-16T01:56:07.892Z,5.93
2023-04-16T01:58:34.737Z,4.85
2023-04-16T02:01:01.658Z,4.85
2023-04-16T02:03:28.397Z,3.75
2023-04-16T02:05:55.038Z,3.55
2023-04-16T02:08:24.030Z,4.97
2023-04-16T02:10:50.901Z,3.28
2023-04-16T02:13:17.513Z,7.97
2023-04-16T02:15:47.721Z,3.47
2023-04-16T02:18:14.835Z,4.95
2023-04-16T02:20:45.888Z,2.97
2023-04-16T02:23:15.305Z,6.32
2023-04-16T02:25:45.514Z,4.50
2023-04-16T02:28:14.426Z,2.05
2023-04-16T02:30:41.961Z,2.90
2023-04-16T02:33:10.616Z,9.00
2023-04-16T02:35:38.835Z,3.90
2023-04-16T02:38:06.452Z,6.03
2023-04-16T02:40:33.145Z,3.78
2023-04-16T02:42:59.806Z,3.92
2023-04-16T02:45:26.357Z,4.77
2023-04-16T02:47:52.969Z,7.53
2023-04-16T02:50:19.585Z,5.35
2023-04-16T02:52:46.212Z,7.22
2023-04-16T02:55:13.087Z,3.42
2023-04-16T02:57:39.767Z,3.30
2023-04-16T03:00:07.088Z,4.95
2023-04-16T03:02:33.915Z,3.78
2023-04-16T03:05:00.728Z,3.80
2023-04-16T03:07:27.248Z,4.30
2023-04-16T03:09:53.979Z,3.60
2023-04-16T03:12:20.720Z,4.13
2023-04-16T03:14:47.307Z,5.07
2023-04-16T03:17:14.067Z,4.15
2023-04-16T03:19:40.677Z,6.90
2023-04-16T03:22:07.222Z,4.00
2023-04-16T03:24:33.829Z,4.10
2023-04-16T03:27:02.000Z,7.50
2023-04-16T03:29:28.586Z,3.60
2023-04-16T03:31:55.357Z,4.18
2023-04-16T03:34:21.908Z,2.57
2023-04-16T03:36:48.518Z,3.38
2023-04-16T03:39:15.304Z,4.57
2023-04-16T03:41:41.901Z,2.63
2023-04-16T03:44:08.633Z,5.10
2023-04-16T03:46:35.554Z,2.67
2023-04-16T03:49:02.229Z,6.18
2023-04-16T03:51:28.959Z,6.13
2023-04-16T03:53:55.625Z,4.75
2023-04-16T03:56:22.555Z,6.95
2023-04-16T03:58:49.113Z,4.53
2023-04-16T04:01:15.853Z,4.65
2023-04-16T04:03:42.660Z,4.95
2023-04-16T04:06:09.899Z,4.43
2023-04-16T04:08:36.748Z,8.32
2023-04-16T04:11:03.326Z,6.23
2023-04-16T04:13:29.856Z,5.32
2023-04-16T04:15:56.888Z,3.63
2023-04-16T04:18:23.551Z,3.58
2023-04-16T04:20:50.210Z,3.35
2023-04-16T04:23:16.842Z,4.17
2023-04-16T04:25:46.280Z,3.20
2023-04-16T04:28:12.921Z,8.52
2023-04-16T04:30:39.547Z,6.35
2023-04-16T04:33:06.386Z,6.55
2023-04-16T04:35:33.836Z,3.50
2023-04-16T04:38:02.576Z,2.85
2023-04-16T04:40:29.343Z,6.53
2023-04-16T04:42:56.162Z,5.25
2023-04-16T04:45:25.531Z,7.30
2023-04-16T04:47:55.362Z,6.87
2023-04-16T04:50:22.376Z,4.70
2023-04-16T04:52:48.895Z,5.20
2023-04-16T04:55:16.119Z,10.73
2023-04-16T04:57:42.821Z,8.23
2023-04-16T05:00:10.069Z,8.13
2023-04-16T05:02:36.830Z,8.02
2023-04-16T05:05:04.257Z,4.30
2023-04-16T05:07:32.297Z,4.72
2023-04-16T05:09:59.130Z,4.25
2023-04-16T05:12:25.886Z,6.63
2023-04-16T05:14:52.491Z,11.98
2023-04-16T05:17:19.300Z,3.28
2023-04-16T05:19:45.898Z,6.10
2023-04-16T05:22:12.722Z,3.75
2023-04-16T05:24:39.276Z,7.07
2023-04-16T05:27:06.595Z,10.85
2023-04-16T05:29:33.149Z,7.97
2023-04-16T05:31:59.821Z,7.60
2023-04-16T05:34:26.729Z,5.97
2023-04-16T05:36:53.371Z,6.17
2023-04-16T05:39:20.337Z,6.13
2023-04-16T05:41:46.955Z,5.38
2023-04-16T05:44:13.600Z,5.70
2023-04-16T05:46:40.228Z,4.82
2023-04-16T05:49:06.829Z,6.90
2023-04-16T05:51:33.572Z,6.75
2023-04-16T05:54:00.123Z,3.95
2023-04-16T05:56:27.139Z,12.00
2023-04-16T05:58:53.721Z,7.63
2023-04-16T06:01:21.318Z,10.73
2023-04-16T06:03:47.979Z,10.55
2023-04-16T06:06:14.617Z,9.65
2023-04-16T06:08:41.635Z,8.63
2023-04-16T06:11:08.246Z,7.65
2023-04-16T06:13:34.780Z,8.13
2023-04-16T06:16:01.473Z,5.88
2023-04-16T06:18:28.126Z,4.78
2023-04-16T06:20:54.922Z,7.78
2023-04-16T06:23:21.620Z,6.82
2023-04-16T06:25:48.241Z,11.90
2023-04-16T06:28:15.198Z,8.05
2023-04-16T06:30:43.373Z,8.65
2023-04-16T06:33:11.237Z,9.38
2023-04-16T06:35:37.804Z,7.53
2023-04-16T06:38:04.354Z,7.03
2023-04-16T06:40:31.067Z,6.05
2023-04-16T06:42:57.694Z,12.63
2023-04-16T06:45:24.718Z,7.88
2023-04-16T06:47:52.661Z,6.70
2023-04-16T06:50:19.458Z,4.67
2023-04-16T06:52:46.167Z,6.80
2023-04-16T06:55:13.777Z,5.75
2023-04-16T06:57:40.908Z,7.10
2023-04-16T07:00:08.197Z,6.40
2023-04-16T07:02:35.227Z,7.10
2023-04-16T07:05:02.281Z,7.53
2023-04-16T07:07:28.908Z,8.15
2023-04-16T07:09:55.541Z,4.32
2023-04-16T07:12:22.954Z,5.78
2023-04-16T07:14:49.734Z,4.07
2023-04-16T07:17:16.459Z,7.85
2023-04-16T07:19:43.002Z,6.72
2023-04-16T07:22:09.663Z,7.95
2023-04-16T07:24:36.614Z,9.85
2023-04-16T07:27:03.274Z,6.53
2023-04-16T07:29:30.128Z,5.05
2023-04-16T07:31:57.615Z,4.57
2023-04-16T07:34:24.406Z,5.55
2023-04-16T07:36:51.151Z,7.53
2023-04-16T07:39:17.908Z,5.77
2023-04-16T07:41:44.563Z,5.93
2023-04-16T07:44:11.206Z,5.13
2023-04-16T07:46:46.453Z,6.40
2023-04-16T07:49:13.989Z,5.82
2023-04-16T07:51:40.746Z,7.90
2023-04-16T07:54:07.308Z,6.63
2023-04-16T07:56:33.983Z,5.65
2023-04-16T07:59:07.827Z,11.93
2023-04-16T08:01:41.659Z,5.97
2023-04-16T08:04:08.523Z,7.27
2023-04-16T08:06:35.214Z,9.30
2023-04-16T08:09:01.816Z,4.55
2023-04-16T08:11:28.989Z,7.22
2023-04-16T08:13:55.953Z,11.90
2023-04-16T08:16:22.809Z,9.93
2023-04-16T08:18:49.503Z,5.55
2023-04-16T08:21:16.126Z,7.43
2023-04-16T08:23:42.761Z,7.88
2023-04-16T08:26:09.309Z,5.20
2023-04-16T08:28:35.881Z,6.17
2023-04-16T08:31:02.575Z,10.00
2023-04-16T08:33:29.342Z,6.38
2023-04-16T08:35:55.898Z,6.70
2023-04-16T08:38:22.600Z,5.28
2023-04-16T08:40:49.413Z,4.67
2023-04-16T08:43:18.406Z,10.48
2023-04-16T08:45:47.740Z,7.20
2023-04-16T08:48:16.289Z,8.82
2023-04-16T08:50:44.431Z,7.40
2023-04-16T08:53:19.363Z,7.30
2023-04-16T08:55:50.486Z,5.07
2023-04-16T08:58:22.236Z,5.43
2023-04-16T09:00:49.618Z,4.63
2023-04-16T09:03:16.589Z,7.25
2023-04-16T09:05:44.368Z,6.90
2023-04-16T09:08:11.215Z,5.78
2023-04-16T09:10:37.875Z,7.45
2023-04-16T09:13:04.462Z,9.52
2023-04-16T09:15:33.992Z,7.85
2023-04-16T09:18:02.121Z,6.87
2023-04-16T09:20:29.215Z,8.25
2023-04-16T09:22:57.564Z,8.60
2023-04-16T09:25:25.117Z,6.43
2023-04-16T09:27:51.803Z,8.52
2023-04-16T09:30:24.028Z,7.23
2023-04-16T09:32:52.775Z,9.25
2023-04-16T09:35:20.111Z,7.13
2023-04-16T09:37:57.685Z,4.65
2023-04-16T09:40:27.215Z,6.68
2023-04-16T09:42:58.317Z,6.43
2023-04-16T09:45:24.844Z,7.25
2023-04-16T09:47:51.659Z,10.30
2023-04-16T09:50:19.761Z,7.28
2023-04-16T09:52:50.089Z,7.85
2023-04-16T09:55:16.791Z,6.87
2023-04-16T09:57:43.352Z,8.98
2023-04-16T10:00:11.481Z,4.35
2023-04-16T10:02:41.918Z,7.03
2023-04-16T10:05:09.086Z,10.38
2023-04-16T10:07:37.295Z,6.93
2023-04-16T10:10:05.081Z,5.60
2023-04-16T10:12:33.101Z,5.32
2023-04-16T10:14:59.830Z,5.78
2023-04-16T10:17:30.414Z,11.05
2023-04-16T10:19:58.436Z,6.13
2023-04-16T10:22:26.432Z,7.60
2023-04-16T10:24:54.916Z,10.85
2023-04-16T10:27:21.844Z,6.03
2023-04-16T10:29:49.348Z,5.47
2023-04-16T10:32:18.312Z,5.07
2023-04-16T10:34:45.210Z,10.00
2023-04-16T10:37:12.677Z,7.03
2023-04-16T10:39:39.449Z,3.72
2023-04-16T10:42:13.418Z,8.98
2023-04-16T10:44:44.390Z,5.50
2023-04-16T10:47:13.787Z,6.32
2023-04-16T10:49:42.728Z,11.35
2023-04-16T10:52:19.291Z,8.50
2023-04-16T10:54:48.063Z,7.35
2023-04-16T10:57:19.932Z,6.97
2023-04-16T10:59:48.905Z,8.80
2023-04-16T11:02:18.018Z,7.65
2023-04-16T11:04:49.206Z,7.10
2023-04-16T11:07:18.719Z,8.57
2023-04-16T11:09:48.928Z,5.90
2023-04-16T11:12:20.484Z,7.35
2023-04-16T11:14:52.482Z,4.70
2023-04-16T11:17:20.521Z,4.95
2023-04-16T11:19:48.258Z,5.05
2023-04-16T11:22:17.900Z,8.10
2023-04-16T11:24:46.363Z,4.90
2023-04-16T11:27:15.425Z,8.25
2023-04-16T11:29:42.394Z,5.35
2023-04-16T11:32:09.264Z,5.93
2023-04-16T11:34:44.227Z,5.63
2023-04-16T11:37:10.988Z,7.90
2023-04-16T11:39:51.948Z,6.18
2023-04-16T11:42:24.763Z,5.03
2023-04-16T11:44:56.202Z,5.82
2023-04-16T11:47:24.552Z,6.40
2023-04-16T11:49:51.726Z,7.43
2023-04-16T11:52:34.240Z,5.25
2023-04-16T11:55:02.660Z,7.25
2023-04-16T11:57:30.674Z,5.82
2023-04-16T12:00:02.710Z,6.13
2023-04-16T12:02:38.225Z,6.15
2023-04-16T12:05:05.775Z,12.27
2023-04-16T12:07:32.898Z,6.32
2023-04-16T12:10:08.964Z,7.85
2023-04-16T12:12:36.080Z,4.53
2023-04-16T12:15:04.076Z,5.10
2023-04-16T12:17:33.268Z,5.18
2023-04-16T12:20:02.894Z,5.82
2023-04-16T12:22:37.707Z,5.43
2023-04-16T12:25:11.244Z,4.83
2023-04-16T12:27:53.404Z,6.43
2023-04-16T12:30:22.906Z,4.57
2023-04-16T12:32:52.268Z,4.50
2023-04-16T12:35:33.729Z,3.50
2023-04-16T12:38:01.594Z,7.57
2023-04-16T12:40:28.350Z,4.32
2023-04-16T12:42:55.547Z,4.97
2023-04-16T12:45:22.570Z,5.45
2023-04-16T12:47:50.594Z,4.95
2023-04-16T12:50:17.992Z,4.80
2023-04-16T12:52:46.037Z,5.75
2023-04-16T12:55:13.971Z,5.72
2023-04-16T12:57:41.281Z,5.50
2023-04-16T13:00:08.631Z,6.70
2023-04-16T13:02:35.345Z,6.73
2023-04-16T13:05:02.196Z,8.13
2023-04-16T13:07:31.825Z,7.60
2023-04-16T13:09:58.456Z,4.05
2023-04-16T13:12:25.056Z,8.73
2023-04-16T13:14:51.642Z,6.83
2023-04-16T13:17:18.309Z,9.38
2023-04-16T13:19:45.781Z,4.30
2023-04-16T13:22:12.507Z,5.80
2023-04-16T13:24:39.208Z,7.63
2023-04-16T13:27:08.233Z,3.17
2023-04-16T13:29:36.743Z,5.32
2023-04-16T13:32:04.036Z,6.63
2023-04-16T13:34:30.823Z,4.63
2023-04-16T13:36:57.378Z,6.13
2023-04-16T13:39:24.188Z,5.90
2023-04-16T13:41:51.521Z,8.00
2023-04-16T13:44:18.200Z,6.88
2023-04-16T13:46:47.688Z,5.05
2023-04-16T13:49:14.901Z,6.85
2023-04-16T13:51:44.661Z,4.67
2023-04-16T13:54:11.363Z,5.47
2023-04-16T13:56:38.058Z,6.10
2023-04-16T13:59:04.660Z,5.20
2023-04-16T14:01:31.355Z,6.60
2023-04-16T14:03:59.695Z,5.97
2023-04-16T14:06:27.098Z,5.07
2023-04-16T14:08:53.785Z,5.03
2023-04-16T14:11:21.066Z,4.88
2023-04-16T14:13:47.644Z,10.05
2023-04-16T14:16:14.255Z,5.03
2023-04-16T14:18:42.800Z,6.60
2023-04-16T14:21:09.559Z,5.35
2023-04-16T14:23:36.400Z,4.00
2023-04-16T14:26:03.866Z,5.85
2023-04-16T14:28:30.559Z,4.00
2023-04-16T14:30:57.174Z,5.15
2023-04-16T14:33:23.813Z,3.85
2023-04-16T14:35:51.495Z,5.50
2023-04-16T14:38:18.485Z,7.70
2023-04-16T14:40:45.169Z,4.50
2023-04-16T14:43:12.175Z,5.18
2023-04-16T14:45:39.295Z,5.97
2023-04-16T14:48:06.354Z,5.88
2023-04-16T14:50:37.971Z,3.42
2023-04-16T14:53:07.751Z,3.80
2023-04-16T14:55:34.467Z,5.30
2023-04-16T14:58:01.488Z,4.13
2023-04-16T15:00:28.359Z,8.38
2023-04-16T15:02:55.613Z,4.80
2023-04-16T15:05:22.398Z,5.77
2023-04-16T15:07:49.187Z,3.70
2023-04-16T15:10:15.819Z,4.45
2023-04-16T15:12:42.599Z,6.93
2023-04-16T15:15:10.060Z,6.25
2023-04-16T15:17:36.755Z,4.70
2023-04-16T15:20:10.970Z,4.13
2023-04-16T15:22:38.350Z,5.05
2023-04-16T15:25:06.544Z,4.78
2023-04-16T15:27:33.323Z,5.38
2023-04-16T15:30:00.043Z,5.40
2023-04-16T15:32:26.678Z,4.97
2023-04-16T15:34:53.397Z,6.45
2023-04-16T15:37:20.035Z,7.05
2023-04-16T15:39:46.575Z,5.30
2023-04-16T15:42:13.325Z,9.97
2023-04-16T15:44:40.421Z,7.60
2023-04-16T15:47:08.621Z,5.78
2023-04-16T15:49:35.572Z,9.15
2023-04-16T15:52:02.460Z,6.05
2023-04-16T15:54:30.278Z,5.43
2023-04-16T15:56:56.857Z,5.78
2023-04-16T15:59:23.862Z,8.80
2023-04-16T16:01:51.038Z,6.25
2023-04-16T16:04:17.833Z,6.93
2023-04-16T16:06:44.487Z,5.10
2023-04-16T16:09:11.417Z,4.63
2023-04-16T16:11:38.446Z,6.07
2023-04-16T16:14:05.052Z,7.18
2023-04-16T16:16:32.912Z,6.57
2023-04-16T16:18:59.656Z,5.97
2023-04-16T16:21:27.406Z,7.00
2023-04-16T16:23:54.046Z,5.80
2023-04-16T16:26:22.986Z,5.82
2023-04-16T16:28:49.630Z,4.90
2023-04-16T16:31:16.336Z,5.07
2023-04-16T16:33:43.363Z,7.85
2023-04-16T16:36:11.416Z,6.32
2023-04-16T16:38:40.069Z,4.75
2023-04-16T16:41:07.389Z,5.80
2023-04-16T16:43:35.977Z,5.30
2023-04-16T16:46:02.609Z,9.50
2023-04-16T16:48:29.562Z,5.50
2023-04-16T16:50:56.181Z,7.85
2023-04-16T16:53:22.752Z,11.02
2023-04-16T16:55:49.343Z,7.53
2023-04-16T16:58:16.005Z,4.53
2023-04-16T17:00:42.694Z,8.18
2023-04-16T17:03:09.738Z,4.93
2023-04-16T17:05:36.771Z,6.03
2023-04-16T17:08:03.718Z,8.23
2023-04-16T17:10:30.460Z,7.38
2023-04-16T17:12:57.248Z,4.93
2023-04-16T17:15:23.957Z,7.00
2023-04-16T17:17:51.009Z,8.93
2023-04-16T17:20:17.822Z,5.60
2023-04-16T17:22:44.448Z,9.18
2023-04-16T17:25:11.259Z,10.20
2023-04-16T17:27:37.971Z,9.00
2023-04-16T17:30:05.813Z,5.45
2023-04-16T17:32:33.322Z,7.97
2023-04-16T17:35:01.875Z,7.03
2023-04-16T17:37:28.662Z,7.78
2023-04-16T17:39:55.649Z,7.43
2023-04-16T17:42:22.259Z,6.25
2023-04-16T17:44:48.824Z,6.37
2023-04-16T17:47:15.403Z,11.70
2023-04-16T17:49:42.017Z,10.35
2023-04-16T17:52:08.651Z,10.32
2023-04-16T17:54:35.291Z,6.38
2023-04-16T17:57:02.183Z,5.90
2023-04-16T17:59:28.938Z,7.80
2023-04-16T18:01:56.719Z,10.23
2023-04-16T18:04:23.702Z,11.70
2023-04-16T18:06:50.806Z,7.30
2023-04-16T18:09:19.202Z,10.27
2023-04-16T18:11:46.111Z,7.93
2023-04-16T18:14:16.704Z,5.85
2023-04-16T18:16:43.451Z,5.53
2023-04-16T18:19:10.023Z,9.98
2023-04-16T18:21:36.667Z,6.83
2023-04-16T18:24:03.599Z,8.07
2023-04-16T18:26:31.040Z,6.72
2023-04-16T18:28:57.880Z,8.73
2023-04-16T18:31:24.714Z,6.50
2023-04-16T18:33:56.623Z,6.47
2023-04-16T18:36:26.124Z,6.78
2023-04-16T18:39:01.539Z,9.00
2023-04-16T18:41:29.871Z,7.00
2023-04-16T18:43:56.729Z,8.65
2023-04-16T18:46:23.435Z,6.00
2023-04-16T18:48:50.135Z,7.45
2023-04-16T18:51:17.034Z,5.93
2023-04-16T18:53:45.675Z,9.32
2023-04-16T18:56:12.715Z,6.35
2023-04-16T18:58:39.302Z,10.00
2023-04-16T19:01:10.966Z,5.80
2023-04-16T19:03:38.092Z,6.25
2023-04-16T19:06:05.969Z,5.93
2023-04-16T19:08:33.020Z,8.13
2023-04-16T19:10:59.688Z,7.77
2023-04-16T19:13:26.408Z,6.70
2023-04-16T19:15:59.732Z,6.78
2023-04-16T19:18:26.603Z,7.00
2023-04-16T19:21:00.214Z,5.35
2023-04-16T19:23:27.175Z,7.60
2023-04-16T19:25:55.747Z,10.07
2023-04-16T19:28:23.699Z,8.60
2023-04-16T19:30:51.482Z,7.72
2023-04-16T19:33:18.998Z,6.72
2023-04-16T19:35:46.810Z,7.30
2023-04-16T19:38:13.549Z,9.85
2023-04-16T19:40:41.161Z,9.40
2023-04-16T19:43:08.091Z,6.40
2023-04-16T19:45:35.205Z,8.38
2023-04-16T19:48:01.951Z,8.40
2023-04-16T19:50:28.517Z,8.80
2023-04-16T19:52:55.067Z,9.82
2023-04-16T19:55:22.831Z,9.23
2023-04-16T19:57:49.662Z,8.50
2023-04-16T20:00:17.082Z,8.00
2023-04-16T20:02:43.801Z,9.93
2023-04-16T20:05:10.572Z,8.95
2023-04-16T20:07:37.154Z,10.30
2023-04-16T20:10:04.041Z,11.73
2023-04-16T20:12:30.626Z,10.53
2023-04-16T20:14:57.371Z,10.18
2023-04-16T20:17:24.057Z,9.00
2023-04-16T20:19:51.246Z,8.68
2023-04-16T20:22:18.828Z,9.32
2023-04-16T20:24:47.721Z,14.50
2023-04-16T20:27:15.361Z,10.40
2023-04-16T20:29:42.163Z,14.15
2023-04-16T20:32:08.798Z,12.48
2023-04-16T20:34:36.635Z,11.93
2023-04-16T20:37:03.509Z,12.70
2023-04-16T20:39:34.033Z,14.38
2023-04-16T20:42:00.939Z,11.60
2023-04-16T20:44:33.429Z,12.02
2023-04-16T20:47:00.142Z,11.98
2023-04-16T20:49:26.776Z,13.13
2023-04-16T20:51:53.667Z,12.85
2023-04-16T20:54:20.204Z,11.68
2023-04-16T20:56:47.237Z,15.13
2023-04-16T20:59:14.078Z,15.43
2023-04-16T21:01:40.807Z,13.40
2023-04-16T21:04:08.021Z,17.73
2023-04-16T21:06:38.610Z,13.32
2023-04-16T21:09:06.078Z,13.52
2023-04-16T21:11:34.779Z,13.98
2023-04-16T21:14:05.526Z,14.93
2023-04-16T21:16:32.600Z,14.18
2023-04-16T21:19:00.686Z,16.15
2023-04-16T21:21:27.847Z,15.23
2023-04-16T21:23:54.528Z,16.23
2023-04-16T21:26:21.561Z,18.20
2023-04-16T21:28:48.440Z,15.30
2023-04-16T21:31:18.376Z,17.02
2023-04-16T21:33:45.133Z,15.15
2023-04-16T21:36:12.057Z,17.23
2023-04-16T21:38:38.714Z,17.87
2023-04-16T21:41:05.407Z,16.15
2023-04-16T21:43:34.819Z,20.20
2023-04-16T21:46:01.440Z,21.17
2023-04-16T21:48:28.603Z,18.88
2023-04-16T21:50:59.929Z,16.80
2023-04-16T21:53:32.023Z,15.18
2023-04-16T21:55:58.928Z,14.32
2023-04-16T21:58:28.727Z,14.55
2023-04-16T22:00:55.402Z,16.25
2023-04-16T22:03:27.671Z,14.50
2023-04-16T22:06:00.931Z,17.25
2023-04-16T22:08:31.282Z,15.98
2023-04-16T22:11:02.843Z,19.92
2023-04-16T22:13:32.462Z,20.80
2023-04-16T22:16:02.926Z,15.33
2023-04-16T22:18:32.997Z,20.08
2023-04-16T22:21:00.506Z,18.63
2023-04-16T22:23:27.467Z,17.23
2023-04-16T22:25:55.390Z,15.95
2023-04-16T22:28:22.889Z,17.03
2023-04-16T22:30:50.046Z,17.05
2023-04-16T22:33:16.918Z,15.80
2023-04-16T22:35:43.708Z,18.92
2023-04-16T22:38:10.589Z,15.38
2023-04-16T22:40:37.265Z,16.37
2023-04-16T22:43:03.963Z,18.80
2023-04-16T22:45:30.613Z,19.90
2023-04-16T22:47:57.302Z,20.23
2023-04-16T22:50:24.166Z,18.98
2023-04-16T22:52:50.781Z,16.87
2023-04-16T22:55:17.430Z,16.98
2023-04-16T22:57:43.982Z,19.35
2023-04-16T23:00:15.858Z,21.02
2023-04-16T23:02:43.182Z,20.67
2023-04-16T23:05:10.086Z,26.57
2023-04-16T23:07:36.727Z,21.80
2023-04-16T23:10:03.395Z,25.38
2023-04-16T23:12:30.069Z,23.45
2023-04-16T23:14:56.984Z,21.35
2023-04-16T23:17:23.571Z,25.00
2023-04-16T23:19:50.254Z,24.23
2023-04-16T23:22:17.140Z,21.58
2023-04-16T23:24:43.719Z,20.45
2023-04-16T23:27:10.927Z,22.38
2023-04-16T23:29:37.662Z,23.63
2023-04-16T23:32:04.612Z,28.75
2023-04-16T23:34:31.594Z,26.40
2023-04-16T23:36:58.376Z,25.33
2023-04-16T23:39:24.997Z,21.63
2023-04-16T23:41:51.525Z,23.83
2023-04-16T23:44:18.142Z,22.00
2023-04-16T23:46:44.756Z,20.63
2023-04-16T23:49:11.593Z,23.17
2023-04-16T23:51:38.409Z,25.88
2023-04-16T23:54:05.046Z,21.23
2023-04-16T23:56:31.686Z,28.05
2023-04-16T23:58:58.368Z,25.90
